createdAt,value
2024-03-14T00:02:33.004Z,3.70
2024-03-14T00:04:59.809Z,3.00
2024-03-14T00:07:27.252Z,3.30
2024-03-14T00:09:53.879Z,3.60
2024-03-14T00:12:20.499Z,4.20
2024-03-14T00:14:51.612Z,3.70
2024-03-14T00:17:24.176Z,3.80
2024-03-14T00:19:52.106Z,3.60
2024-03-14T00:22:18.983Z,3.60
2024-03-14T00:24:46.888Z,3.90
2024-03-14T00:27:14.910Z,3.90
2024-03-14T00:29:43.258Z,4.40
2024-03-14T00:32:10.262Z,4.00
2024-03-14T00:34:37.555Z,4.00
2024-03-14T00:37:04.527Z,4.00
2024-03-14T00:39:33.266Z,4.10
2024-03-14T00:42:00.243Z,4.50
2024-03-14T00:44:26.977Z,3.80
2024-03-14T00:46:53.547Z,3.80
2024-03-14T00:49:20.271Z,4.20
2024-03-14T00:51:47.343Z,4.10
2024-03-14T00:54:14.221Z,4.60
2024-03-14T00:56:42.499Z,4.50
2024-03-14T00:59:10.689Z,4.40
2024-03-14T01:01:37.538Z,3.80
2024-03-14T01:04:05.450Z,4.20
2024-03-14T01:06:32.887Z,3.80
2024-03-14T01:09:01.032Z,3.80
2024-03-14T01:11:29.064Z,3.60
2024-03-14T01:13:56.157Z,4.50
2024-03-14T01:16:22.661Z,3.80
2024-03-14T01:18:51.513Z,3.80
2024-03-14T01:21:18.389Z,4.10
2024-03-14T01:23:45.335Z,3.60
2024-03-14T01:26:12.391Z,3.70
2024-03-14T01:28:38.981Z,4.10
2024-03-14T01:31:06.721Z,3.20
2024-03-14T01:33:33.838Z,4.60
2024-03-14T01:36:02.247Z,3.90
2024-03-14T01:38:29.083Z,3.90
2024-03-14T01:40:55.788Z,5.40
2024-03-14T01:43:23.440Z,3.20
2024-03-14T01:45:50.530Z,3.80
2024-03-14T01:48:17.249Z,3.60
2024-03-14T01:50:43.962Z,3.80
2024-03-14T01:53:11.381Z,3.20
2024-03-14T01:55:39.291Z,3.10
2024-03-14T01:58:08.956Z,3.70
2024-03-14T02:00:44.907Z,4.00
2024-03-14T02:03:14.652Z,3.60
2024-03-14T02:05:53.073Z,4.00
2024-03-14T02:08:21.384Z,3.70
2024-03-14T02:10:48.086Z,3.80
2024-03-14T02:13:15.333Z,3.80
2024-03-14T02:15:41.956Z,3.50
2024-03-14T02:18:10.119Z,4.10
2024-03-14T02:20:38.343Z,3.80
2024-03-14T02:23:05.987Z,3.60
2024-03-14T02:27:59.403Z,3.50
2024-03-14T02:30:26.177Z,4.00
2024-03-14T02:32:53.258Z,4.10
2024-03-14T02:35:20.112Z,4.20
2024-03-14T02:37:47.758Z,4.70
2024-03-14T02:40:14.329Z,4.40
2024-03-14T02:42:41.025Z,4.50
2024-03-14T02:45:08.602Z,4.70
2024-03-14T02:50:07.933Z,3.60
2024-03-14T02:52:34.793Z,4.50
2024-03-14T02:55:02.971Z,4.50
2024-03-14T02:57:30.471Z,4.40
2024-03-14T02:59:57.289Z,4.50
2024-03-14T03:02:26.658Z,4.00
2024-03-14T03:04:53.168Z,3.90
2024-03-14T03:07:19.765Z,4.40
2024-03-14T03:09:47.508Z,3.90
2024-03-14T03:12:14.259Z,4.00
2024-03-14T03:14:40.921Z,4.80
2024-03-14T03:17:08.216Z,4.30
2024-03-14T03:19:37.477Z,4.30
2024-03-14T03:22:06.894Z,3.80
2024-03-14T03:24:33.699Z,4.20
2024-03-14T03:27:04.476Z,5.40
2024-03-14T03:29:31.329Z,4.20
2024-03-14T03:31:57.859Z,4.20
2024-03-14T03:34:25.042Z,4.20
2024-03-14T03:36:52.061Z,4.20
2024-03-14T03:39:19.687Z,4.90
2024-03-14T03:41:47.712Z,4.30
2024-03-14T03:44:14.603Z,5.10
2024-03-14T03:46:45.648Z,4.20
2024-03-14T03:49:12.517Z,4.50
2024-03-14T03:51:39.091Z,4.40
2024-03-14T03:54:06.298Z,4.30
2024-03-14T03:56:33.149Z,4.30
2024-03-14T03:58:59.704Z,5.10
2024-03-14T04:01:28.522Z,4.70
2024-03-14T04:03:55.746Z,4.90
2024-03-14T04:06:22.873Z,4.80
2024-03-14T04:08:49.870Z,5.50
2024-03-14T04:11:17.500Z,5.10
2024-03-14T04:13:44.736Z,5.00
2024-03-14T04:16:14.271Z,5.00
2024-03-14T04:18:41.146Z,5.30
2024-03-14T04:21:14.700Z,4.40
2024-03-14T04:23:42.048Z,4.90
2024-03-14T04:26:10.740Z,5.00
2024-03-14T04:28:39.249Z,5.40
2024-03-14T04:31:05.875Z,5.20
2024-03-14T04:33:35.398Z,4.60
2024-03-14T04:36:04.808Z,4.60
2024-03-14T04:38:33.464Z,5.10
2024-03-14T04:41:01.232Z,5.70
2024-03-14T04:43:28.480Z,5.00
2024-03-14T04:45:55.648Z,5.40
2024-03-14T04:48:22.307Z,5.00
2024-03-14T04:50:50.440Z,4.50
2024-03-14T04:53:17.632Z,5.60
2024-03-14T04:55:47.296Z,6.10
2024-03-14T04:58:17.328Z,5.10
2024-03-14T05:00:47.441Z,5.10
2024-03-14T05:03:14.965Z,5.50
2024-03-14T05:08:08.707Z,4.90
2024-03-14T05:10:35.709Z,5.20
2024-03-14T05:13:02.639Z,5.50
2024-03-14T05:15:29.994Z,4.60
2024-03-14T05:18:03.135Z,5.20
2024-03-14T05:20:30.595Z,4.60
2024-03-14T05:22:57.702Z,5.00
2024-03-14T05:25:25.094Z,5.80
2024-03-14T05:27:52.332Z,11.30
2024-03-14T05:30:19.925Z,9.10
2024-03-14T05:32:46.659Z,6.60
2024-03-14T05:35:14.102Z,6.20
2024-03-14T05:37:42.823Z,7.60
2024-03-14T05:40:12.134Z,6.60
2024-03-14T05:42:40.577Z,5.60
2024-03-14T05:45:10.491Z,33.30
2024-03-14T05:47:41.077Z,20.10
2024-03-14T05:50:10.842Z,25.00
2024-03-14T05:52:37.557Z,10.20
2024-03-14T05:55:04.875Z,5.00
2024-03-14T05:57:32.111Z,5.20
2024-03-14T06:00:02.187Z,5.00
2024-03-14T06:02:28.950Z,5.50
2024-03-14T06:04:55.900Z,5.40
2024-03-14T06:07:23.276Z,6.00
2024-03-14T06:09:51.739Z,7.20
2024-03-14T06:12:18.807Z,10.20
2024-03-14T06:14:46.872Z,6.00
2024-03-14T06:17:14.325Z,17.50
2024-03-14T06:19:41.107Z,9.00
2024-03-14T06:22:07.884Z,8.60
2024-03-14T06:24:35.039Z,6.10
2024-03-14T06:27:01.930Z,5.20
2024-03-14T06:29:28.658Z,5.60
2024-03-14T06:31:55.269Z,5.50
2024-03-14T06:34:21.776Z,5.40
2024-03-14T06:36:48.346Z,6.20
2024-03-14T06:39:18.399Z,5.80
2024-03-14T06:41:45.178Z,7.70
2024-03-14T06:44:13.159Z,7.20
2024-03-14T06:46:41.062Z,7.00
2024-03-14T06:49:13.814Z,5.60
2024-03-14T06:51:43.531Z,7.30
2024-03-14T06:54:15.841Z,7.00
2024-03-14T06:56:42.384Z,7.30
2024-03-14T06:59:14.445Z,10.40
2024-03-14T07:01:41.608Z,9.80
2024-03-14T07:04:09.720Z,7.50
2024-03-14T07:06:36.850Z,5.50
2024-03-14T07:09:05.180Z,5.70
2024-03-14T07:11:32.462Z,5.30
2024-03-14T07:14:01.152Z,6.40
2024-03-14T07:16:27.935Z,5.90
2024-03-14T07:18:57.630Z,6.20
2024-03-14T07:21:24.308Z,5.20
2024-03-14T07:23:51.329Z,5.50
2024-03-14T07:26:24.566Z,6.00
2024-03-14T07:28:55.331Z,5.10
2024-03-14T07:31:22.661Z,6.40
2024-03-14T07:33:50.509Z,5.50
2024-03-14T07:36:17.613Z,5.60
2024-03-14T07:38:45.757Z,5.50
2024-03-14T07:41:15.438Z,5.80
2024-03-14T07:43:41.931Z,5.30
2024-03-14T07:46:09.544Z,5.80
2024-03-14T07:51:08.867Z,5.10
2024-03-14T07:53:36.054Z,5.30
2024-03-14T07:56:03.218Z,5.90
2024-03-14T07:58:29.846Z,5.40
2024-03-14T08:00:57.147Z,6.20
2024-03-14T08:05:51.752Z,4.70
2024-03-14T08:08:25.636Z,5.50
2024-03-14T08:10:54.298Z,5.80
2024-03-14T08:13:25.307Z,4.90
2024-03-14T08:15:55.424Z,5.00
2024-03-14T08:18:23.599Z,6.30
2024-03-14T08:20:51.523Z,6.10
2024-03-14T08:23:18.081Z,5.20
2024-03-14T08:25:44.963Z,5.70
2024-03-14T08:28:13.114Z,5.40
2024-03-14T08:30:41.079Z,5.40
2024-03-14T08:33:10.753Z,4.90
2024-03-14T08:35:43.502Z,5.70
2024-03-14T08:38:10.799Z,5.30
2024-03-14T08:40:37.738Z,4.80
2024-03-14T08:43:04.595Z,5.30
2024-03-14T08:45:36.606Z,5.50
2024-03-14T08:48:09.180Z,5.60
2024-03-14T08:50:36.904Z,5.00
2024-03-14T08:53:04.116Z,4.70
2024-03-14T08:55:34.813Z,5.00
2024-03-14T08:58:04.466Z,5.00
2024-03-14T09:00:31.747Z,5.10
2024-03-14T09:03:01.210Z,5.40
2024-03-14T09:05:29.092Z,4.40
2024-03-14T09:07:57.599Z,4.70
2024-03-14T09:10:27.269Z,4.40
2024-03-14T09:12:55.785Z,4.50
2024-03-14T09:15:23.340Z,5.10
2024-03-14T09:17:51.725Z,5.30
2024-03-14T09:20:21.328Z,4.80
2024-03-14T09:22:55.447Z,4.90
2024-03-14T09:25:23.653Z,4.40
2024-03-14T09:27:52.706Z,4.80
2024-03-14T09:30:20.397Z,5.90
2024-03-14T09:32:47.321Z,5.10
2024-03-14T09:35:26.595Z,5.30
2024-03-14T09:37:56.263Z,4.70
2024-03-14T09:40:24.661Z,5.20
2024-03-14T09:43:01.104Z,4.60
2024-03-14T09:45:30.322Z,4.80
2024-03-14T09:47:58.693Z,4.80
2024-03-14T09:50:28.190Z,4.70
2024-03-14T09:52:56.522Z,6.20
2024-03-14T09:55:25.298Z,4.40
2024-03-14T09:57:54.189Z,4.60
2024-03-14T10:00:21.592Z,4.10
2024-03-14T10:05:20.544Z,4.10
2024-03-14T10:07:48.752Z,4.20
2024-03-14T10:10:17.111Z,4.30
2024-03-14T10:12:55.527Z,4.10
2024-03-14T10:15:23.647Z,3.60
2024-03-14T10:17:54.015Z,4.10
2024-03-14T10:20:21.765Z,4.00
2024-03-14T10:22:50.038Z,3.90
2024-03-14T10:25:19.208Z,7.00
2024-03-14T10:28:05.620Z,4.30
2024-03-14T10:30:38.807Z,4.40
2024-03-14T10:33:11.380Z,4.40
2024-03-14T10:35:40.379Z,5.90
2024-03-14T10:38:12.840Z,5.70
2024-03-14T10:40:43.359Z,4.20
2024-03-14T10:43:15.507Z,4.20
2024-03-14T10:45:43.814Z,3.90
2024-03-14T10:48:11.976Z,4.60
2024-03-14T10:50:39.137Z,4.00
2024-03-14T10:55:34.894Z,3.60
2024-03-14T10:58:05.472Z,3.10
2024-03-14T11:00:35.891Z,3.70
2024-03-14T11:03:05.129Z,3.10
2024-03-14T11:05:33.390Z,3.30
2024-03-14T11:08:04.722Z,4.20
2024-03-14T11:10:35.445Z,3.70
2024-03-14T11:13:18.480Z,4.10
2024-03-14T11:15:45.725Z,4.00
2024-03-14T11:18:15.606Z,3.70
2024-03-14T11:20:48.010Z,2.70
2024-03-14T11:23:19.543Z,3.80
2024-03-14T11:25:50.689Z,3.70
2024-03-14T11:28:17.944Z,3.80
2024-03-14T11:30:57.376Z,3.90
2024-03-14T11:33:28.621Z,3.10
2024-03-14T11:35:59.435Z,3.90
2024-03-14T11:38:31.274Z,3.20
2024-03-14T11:41:07.619Z,3.50
2024-03-14T11:43:35.386Z,3.20
2024-03-14T11:46:10.161Z,3.70
2024-03-14T11:48:40.088Z,3.70
2024-03-14T11:51:12.470Z,3.00
2024-03-14T11:53:40.908Z,3.00
2024-03-14T11:56:11.692Z,3.10
2024-03-14T11:58:42.531Z,2.80
2024-03-14T12:01:15.560Z,3.10
2024-03-14T12:03:45.670Z,2.90
2024-03-14T12:06:17.545Z,2.60
2024-03-14T12:08:44.329Z,2.90
2024-03-14T12:13:37.708Z,3.90
2024-03-14T12:16:05.757Z,3.30
2024-03-14T12:18:34.105Z,3.10
2024-03-14T12:21:02.002Z,3.10
2024-03-14T12:23:30.308Z,4.90
2024-03-14T12:26:03.977Z,3.00
2024-03-14T12:28:33.231Z,2.30
2024-03-14T12:31:03.029Z,2.30
2024-03-14T12:33:32.470Z,2.20
2024-03-14T12:36:02.093Z,2.40
2024-03-14T12:38:29.771Z,2.70
2024-03-14T12:41:00.804Z,2.30
2024-03-14T12:43:29.021Z,1.90
2024-03-14T12:45:56.138Z,1.70
2024-03-14T12:48:23.847Z,2.00
2024-03-14T12:50:54.973Z,1.90
2024-03-14T12:53:25.543Z,1.80
2024-03-14T12:55:54.005Z,2.30
2024-03-14T12:58:24.232Z,2.10
2024-03-14T13:00:55.681Z,1.60
2024-03-14T13:03:25.461Z,2.00
2024-03-14T13:05:57.486Z,1.60
2024-03-14T13:08:29.337Z,1.50
2024-03-14T13:11:17.430Z,1.70
2024-03-14T13:13:44.224Z,1.40
2024-03-14T13:16:30.695Z,1.60
2024-03-14T13:18:57.511Z,1.70
2024-03-14T13:21:27.044Z,1.50
2024-03-14T13:23:57.085Z,1.40
2024-03-14T13:26:24.953Z,1.20
2024-03-14T13:28:55.165Z,1.50
2024-03-14T13:31:27.212Z,1.50
2024-03-14T13:33:55.597Z,1.40
2024-03-14T13:36:22.510Z,1.40
2024-03-14T13:38:49.238Z,1.60
2024-03-14T13:43:42.599Z,1.50
2024-03-14T13:48:37.644Z,5.50
2024-03-14T13:51:08.374Z,2.10
2024-03-14T13:53:35.064Z,1.80
2024-03-14T13:56:02.126Z,1.70
2024-03-14T13:58:29.268Z,1.70
2024-03-14T14:00:57.920Z,2.00
2024-03-14T14:03:25.209Z,1.80
2024-03-14T14:06:05.105Z,2.20
2024-03-14T14:08:32.141Z,2.10
2024-03-14T14:10:58.807Z,1.70
2024-03-14T14:13:26.537Z,1.50
2024-03-14T14:15:53.779Z,1.80
2024-03-14T14:18:20.621Z,1.90
2024-03-14T14:23:14.125Z,1.90
2024-03-14T14:25:40.751Z,1.70
2024-03-14T14:28:10.616Z,1.90
2024-03-14T14:30:37.878Z,1.60
2024-03-14T14:33:05.232Z,2.00
2024-03-14T14:35:32.204Z,1.60
2024-03-14T14:37:59.197Z,1.60
2024-03-14T14:40:25.934Z,1.70
2024-03-14T14:42:55.293Z,1.80
2024-03-14T14:45:22.475Z,2.00
2024-03-14T14:47:49.085Z,1.80
2024-03-14T14:50:15.753Z,1.80
2024-03-14T14:52:42.562Z,1.80
2024-03-14T14:55:13.423Z,2.00
2024-03-14T14:57:44.328Z,2.10
2024-03-14T15:00:15.191Z,1.80
2024-03-14T15:02:48.254Z,2.00
2024-03-14T15:05:15.257Z,1.70
2024-03-14T15:10:13.600Z,1.90
2024-03-14T15:12:49.698Z,1.90
2024-03-14T15:15:23.798Z,2.00
2024-03-14T15:17:52.708Z,1.80
2024-03-14T15:20:23.215Z,2.10
2024-03-14T15:22:53.244Z,2.10
2024-03-14T15:25:21.277Z,2.20
2024-03-14T15:27:48.251Z,1.60
2024-03-14T15:30:17.082Z,2.00
2024-03-14T15:32:44.953Z,1.80
2024-03-14T15:35:16.951Z,2.40
2024-03-14T15:37:45.319Z,1.90
2024-03-14T15:40:15.162Z,2.00
2024-03-14T15:42:42.970Z,1.80
2024-03-14T15:45:17.304Z,1.80
2024-03-14T15:47:46.848Z,2.10
2024-03-14T15:50:14.750Z,2.20
2024-03-14T15:52:41.558Z,2.80
2024-03-14T15:55:09.676Z,2.10
2024-03-14T15:57:36.537Z,2.00
2024-03-14T16:00:03.719Z,1.80
2024-03-14T16:02:30.725Z,2.10
2024-03-14T16:04:57.326Z,2.50
2024-03-14T16:07:23.879Z,2.50
2024-03-14T16:09:50.431Z,2.90
2024-03-14T16:12:19.895Z,2.80
2024-03-14T16:14:48.256Z,3.50
2024-03-14T16:17:16.681Z,4.50
2024-03-14T16:19:44.240Z,3.20
2024-03-14T16:22:11.226Z,2.70
2024-03-14T16:24:38.720Z,2.70
2024-03-14T16:27:06.369Z,2.40
2024-03-14T16:29:33.131Z,3.10
2024-03-14T16:32:02.707Z,2.70
2024-03-14T16:34:32.597Z,2.80
2024-03-14T16:37:00.432Z,2.70
2024-03-14T16:39:27.574Z,2.90
2024-03-14T16:41:54.473Z,2.50
2024-03-14T16:44:21.180Z,2.20
2024-03-14T16:46:47.722Z,2.50
2024-03-14T16:49:14.263Z,2.80
2024-03-14T16:51:43.590Z,3.10
2024-03-14T16:54:14.211Z,2.10
2024-03-14T16:56:40.995Z,2.30
2024-03-14T16:59:08.557Z,2.20
2024-03-14T17:01:36.686Z,2.30
2024-03-14T17:04:04.133Z,2.40
2024-03-14T17:06:31.675Z,2.00
2024-03-14T17:08:58.681Z,2.40
2024-03-14T17:11:25.548Z,2.40
2024-03-14T17:13:53.694Z,2.40
2024-03-14T17:16:24.534Z,2.40
2024-03-14T17:18:52.451Z,2.10
2024-03-14T17:21:22.201Z,2.80
2024-03-14T17:23:49.376Z,2.70
2024-03-14T17:26:17.990Z,2.60
2024-03-14T17:28:44.912Z,5.00
2024-03-14T17:31:14.413Z,5.20
2024-03-14T17:33:43.748Z,4.90
2024-03-14T17:36:16.536Z,3.40
2024-03-14T17:38:44.586Z,2.60
2024-03-14T17:41:12.173Z,2.60
2024-03-14T17:43:39.637Z,2.20
2024-03-14T17:46:07.960Z,1.90
2024-03-14T17:48:35.412Z,1.90
2024-03-14T17:51:02.243Z,2.30
2024-03-14T17:53:29.465Z,1.60
2024-03-14T17:55:56.229Z,1.90
2024-03-14T17:58:22.832Z,1.90
2024-03-14T18:00:49.644Z,1.70
2024-03-14T18:03:18.165Z,1.60
2024-03-14T18:05:45.532Z,2.10
2024-03-14T18:10:40.103Z,2.30
2024-03-14T18:13:07.308Z,2.20
2024-03-14T18:18:01.742Z,2.00
2024-03-14T18:20:28.762Z,2.20
2024-03-14T18:22:56.531Z,2.20
2024-03-14T18:25:23.395Z,2.20
2024-03-14T18:27:52.429Z,2.20
2024-03-14T18:30:22.015Z,1.90
2024-03-14T18:32:50.884Z,2.00
2024-03-14T18:35:19.125Z,2.10
2024-03-14T18:37:47.099Z,2.10
2024-03-14T18:40:19.757Z,2.00
2024-03-14T18:42:48.393Z,2.10
2024-03-14T18:45:17.559Z,2.30
2024-03-14T18:47:45.214Z,3.80
2024-03-14T18:50:14.879Z,9.70
2024-03-14T18:52:42.463Z,10.40
2024-03-14T18:55:10.833Z,3.40
2024-03-14T18:57:38.419Z,1.70
2024-03-14T19:02:35.245Z,2.90
2024-03-14T19:05:02.065Z,1.90
2024-03-14T19:07:28.889Z,2.30
2024-03-14T19:09:55.430Z,2.40
2024-03-14T19:12:22.321Z,2.90
2024-03-14T19:14:50.495Z,2.40
2024-03-14T19:17:20.858Z,2.40
2024-03-14T19:19:51.708Z,2.40
2024-03-14T19:22:18.863Z,2.20
2024-03-14T19:24:46.117Z,2.10
2024-03-14T19:29:40.398Z,2.50
2024-03-14T19:32:07.234Z,2.60
2024-03-14T19:34:34.664Z,3.00
2024-03-14T19:39:34.448Z,2.50
2024-03-14T19:42:02.318Z,2.20
2024-03-14T19:44:30.622Z,2.70
2024-03-14T19:46:58.618Z,3.00
2024-03-14T19:49:25.829Z,2.50
2024-03-14T19:51:52.646Z,2.70
2024-03-14T19:54:19.543Z,2.60
2024-03-14T19:56:48.671Z,2.70
2024-03-14T19:59:15.609Z,2.50
2024-03-14T20:01:42.345Z,3.00
2024-03-14T20:04:09.758Z,3.00
2024-03-14T20:09:04.827Z,3.30
2024-03-14T20:11:31.555Z,3.40
2024-03-14T20:13:58.414Z,4.00
2024-03-14T20:16:25.017Z,3.40
2024-03-14T20:18:51.848Z,3.00
2024-03-14T20:21:18.654Z,3.10
2024-03-14T20:23:48.762Z,3.00
2024-03-14T20:26:16.657Z,3.30
2024-03-14T20:28:43.789Z,3.50
2024-03-14T20:31:10.510Z,3.20
2024-03-14T20:33:38.136Z,3.20
2024-03-14T20:36:57.216Z,3.60
2024-03-14T20:39:25.456Z,4.10
2024-03-14T20:41:52.096Z,4.00
2024-03-14T20:44:18.709Z,4.80
2024-03-14T20:46:45.817Z,5.20
2024-03-14T20:49:14.013Z,4.60
2024-03-14T20:51:40.849Z,4.90
2024-03-14T20:54:09.387Z,4.90
2024-03-14T20:56:43.460Z,5.20
2024-03-14T20:59:14.418Z,5.30
2024-03-14T21:01:40.881Z,5.00
2024-03-14T21:04:10.576Z,5.20
2024-03-14T21:06:38.434Z,5.40
2024-03-14T21:09:08.623Z,5.30
2024-03-14T21:11:35.567Z,5.20
2024-03-14T21:14:02.721Z,6.10
2024-03-14T21:16:30.257Z,6.80
2024-03-14T21:21:23.810Z,5.10
2024-03-14T21:23:50.706Z,6.60
2024-03-14T21:26:17.215Z,5.60
2024-03-14T21:28:43.681Z,5.30
2024-03-14T21:31:10.233Z,5.60
2024-03-14T21:33:38.003Z,5.30
2024-03-14T21:36:06.118Z,4.80
2024-03-14T21:38:33.796Z,5.80
2024-03-14T21:41:00.352Z,5.40
2024-03-14T21:43:26.765Z,5.50
2024-03-14T21:45:54.211Z,5.00
2024-03-14T21:50:48.244Z,4.90
2024-03-14T21:53:15.437Z,4.40
2024-03-14T21:55:42.394Z,4.70
2024-03-14T21:58:08.982Z,5.20
2024-03-14T22:00:35.578Z,5.30
2024-03-14T22:03:02.255Z,4.90
2024-03-14T22:05:31.374Z,4.90
2024-03-14T22:07:57.836Z,4.90
2024-03-14T22:10:24.589Z,5.70
2024-03-14T22:12:51.279Z,4.80
2024-03-14T22:15:18.953Z,4.10
2024-03-14T22:17:46.067Z,4.50
2024-03-14T22:20:19.987Z,5.30
2024-03-14T22:22:47.246Z,5.40
2024-03-14T22:25:14.621Z,5.50
2024-03-14T22:27:43.082Z,5.10
2024-03-14T22:30:11.040Z,5.70
2024-03-14T22:32:37.985Z,5.90
2024-03-14T22:35:05.626Z,5.50
2024-03-14T22:39:58.982Z,5.10
2024-03-14T22:42:26.103Z,5.00
2024-03-14T22:44:53.398Z,5.50
2024-03-14T22:47:20.059Z,5.20
2024-03-14T22:49:46.538Z,5.10
2024-03-14T22:52:12.990Z,5.10
2024-03-14T22:54:39.757Z,4.80
2024-03-14T22:57:08.341Z,5.80
2024-03-14T22:59:36.468Z,5.20
2024-03-14T23:02:04.620Z,4.80
2024-03-14T23:04:33.587Z,4.70
2024-03-14T23:07:00.357Z,6.30
2024-03-14T23:09:27.672Z,5.80
2024-03-14T23:11:54.156Z,5.50
2024-03-14T23:14:20.694Z,5.40
2024-03-14T23:16:47.643Z,4.90
2024-03-14T23:19:14.094Z,5.10
2024-03-14T23:21:41.630Z,5.30
2024-03-14T23:24:08.859Z,5.60
2024-03-14T23:26:35.476Z,5.00
2024-03-14T23:29:05.500Z,5.90
2024-03-14T23:31:32.305Z,5.20
2024-03-14T23:33:59.933Z,5.20
2024-03-14T23:36:27.917Z,5.50
2024-03-14T23:38:55.102Z,5.10
2024-03-14T23:41:22.384Z,5.50
2024-03-14T23:43:52.966Z,6.00
2024-03-14T23:46:21.207Z,5.10
2024-03-14T23:48:48.285Z,6.20
2024-03-14T23:51:16.291Z,5.80
2024-03-14T23:53:43.355Z,6.50
2024-03-14T23:56:10.363Z,5.30
2024-03-14T23:58:37.114Z,6.00
